CA-0098 weather

CLOSED Comet Airport
Alberta, Canada

Public forecast

Using degrees Celsius for public forecast. Weather courtesy of forecast.io.

Closest aviation weather report (METAR) to Comet Airport

Closest report is High Level Airport, 59.1 nm (109.5 km) E. Retrieved 2019/10/23 15:00 UTC (4 minutes ago):

CYOJ 231500Z 00000KT 10SM FEW010 OVC018 M00/M01 A3026 RMK SC1SC7 SLP268

Closest aviation forecast (TAF) to Comet Airport

Closest forecast is High Level Airport, 59.1 nm (109.5 km) E. Retrieved 2019/10/23 13:39 UTC (1 hour ago):

TAF TAF CYOJ 231238Z 2313/2401 32005KT P6SM SCT015 OVC025 TEMPO 2313/2316 4SM BR BKN008 OVC015 PROB30 2313/2315 1SM BR OVC005 FM231600 32005KT P6SM SCT020 TEMPO 2316/2319 BKN020 FM231900 VRB03KT P6SM SKC RMK FCST BASED ON AUTO OBS NXT FCST BY 231900Z